createdAt,value
2022-10-08T00:35:28.001Z,30.83
2022-10-08T00:39:31.566Z,33.17
2022-10-08T00:43:43.062Z,37.28
2022-10-08T00:47:48.313Z,26.05
2022-10-08T00:51:55.971Z,27.20
2022-10-08T00:55:59.483Z,30.92
2022-10-08T01:00:04.879Z,28.77
2022-10-08T01:04:09.518Z,32.20
2022-10-08T01:08:21.348Z,27.42
2022-10-08T01:12:38.546Z,26.02
2022-10-08T01:16:52.477Z,32.25
2022-10-08T01:21:05.429Z,32.30
2022-10-08T01:29:44.841Z,35.63
2022-10-08T01:33:55.331Z,31.15
2022-10-08T01:38:06.360Z,29.25
2022-10-08T01:42:12.176Z,27.02
2022-10-08T01:46:21.813Z,25.40
2022-10-08T01:50:29.103Z,31.92
2022-10-08T01:54:35.355Z,25.13
2022-10-08T01:58:47.983Z,21.63
2022-10-08T02:02:55.227Z,24.58
2022-10-08T02:07:01.005Z,32.42
2022-10-08T02:11:04.670Z,24.42
2022-10-08T02:15:09.993Z,24.83
2022-10-08T02:19:26.630Z,23.60
2022-10-08T02:23:33.718Z,28.10
2022-10-08T02:27:50.010Z,26.85
2022-10-08T02:31:58.511Z,24.20
2022-10-08T02:36:08.265Z,30.17
2022-10-08T02:40:14.605Z,32.47
2022-10-08T02:44:23.113Z,26.83
2022-10-08T02:48:31.833Z,29.63
2022-10-08T02:52:41.542Z,29.98
2022-10-08T02:56:49.853Z,30.27
2022-10-08T03:00:55.898Z,27.20
2022-10-08T03:05:04.177Z,25.30
2022-10-08T03:09:13.932Z,30.15
2022-10-08T03:13:18.952Z,26.33
2022-10-08T03:17:26.976Z,27.88
2022-10-08T03:21:30.233Z,35.95
2022-10-08T03:25:35.061Z,25.00
2022-10-08T03:29:38.545Z,30.80
2022-10-08T03:33:42.009Z,27.75
2022-10-08T03:37:44.976Z,33.35
2022-10-08T03:41:49.856Z,37.95
2022-10-08T03:45:54.333Z,34.80
2022-10-08T03:49:57.800Z,29.88
2022-10-08T03:54:01.232Z,35.15
2022-10-08T03:58:05.685Z,39.25
2022-10-08T04:02:08.832Z,33.47
2022-10-08T04:06:13.342Z,38.05
2022-10-08T04:10:17.153Z,32.42
2022-10-08T04:14:21.868Z,31.90
2022-10-08T04:18:24.789Z,35.63
2022-10-08T04:22:27.798Z,28.85
2022-10-08T04:26:31.355Z,35.72
2022-10-08T04:30:36.141Z,30.58
2022-10-08T04:34:39.228Z,31.13
2022-10-08T04:38:44.170Z,31.20
2022-10-08T04:42:52.525Z,28.55
2022-10-08T04:46:57.293Z,33.60
2022-10-08T04:51:04.880Z,29.45
2022-10-08T04:55:11.403Z,36.08
2022-10-08T04:59:14.411Z,32.40
2022-10-08T05:03:19.456Z,35.05
2022-10-08T05:07:22.925Z,37.60
2022-10-08T05:11:27.844Z,34.13
2022-10-08T05:15:31.775Z,31.35
2022-10-08T05:19:36.874Z,30.33
2022-10-08T05:23:41.220Z,33.58
2022-10-08T05:27:44.821Z,30.48
2022-10-08T05:31:47.936Z,34.70
2022-10-08T05:35:52.365Z,28.77
2022-10-08T05:39:55.802Z,30.48
2022-10-08T05:44:02.022Z,37.58
2022-10-08T05:48:05.791Z,36.40
2022-10-08T05:52:10.279Z,31.02
2022-10-08T05:56:15.159Z,27.60
2022-10-08T06:00:18.259Z,30.08
2022-10-08T06:04:21.935Z,28.52
2022-10-08T06:08:26.543Z,25.23
2022-10-08T06:12:30.025Z,32.05
2022-10-08T06:16:33.035Z,26.02
2022-10-08T06:20:38.189Z,31.10
2022-10-08T06:24:42.956Z,30.05
2022-10-08T06:28:46.728Z,26.15
2022-10-08T06:32:50.519Z,27.92
2022-10-08T06:36:55.172Z,31.88
2022-10-08T06:41:00.311Z,26.88
2022-10-08T06:45:03.729Z,29.90
2022-10-08T06:49:07.251Z,28.15
2022-10-08T06:53:12.484Z,34.97
2022-10-08T06:57:17.542Z,32.83
2022-10-08T07:01:22.942Z,23.83
2022-10-08T07:05:26.251Z,24.77
2022-10-08T07:09:29.297Z,29.00
2022-10-08T07:13:34.621Z,27.42
2022-10-08T07:17:38.691Z,23.27
2022-10-08T07:21:41.683Z,30.25
2022-10-08T07:25:45.007Z,24.40
2022-10-08T07:29:49.936Z,26.65
2022-10-08T07:33:54.175Z,25.83
2022-10-08T07:42:06.996Z,32.20
2022-10-08T07:46:13.210Z,25.00
2022-10-08T07:50:17.058Z,25.38
2022-10-08T07:54:21.134Z,27.05
2022-10-08T07:58:24.607Z,26.92
2022-10-08T08:02:29.096Z,20.70
2022-10-08T08:06:34.825Z,35.58
2022-10-08T08:10:37.849Z,23.88
2022-10-08T08:14:41.346Z,28.80
2022-10-08T08:18:47.784Z,25.67
2022-10-08T08:22:50.832Z,19.88
2022-10-08T08:26:57.585Z,30.88
2022-10-08T08:31:09.147Z,26.30
2022-10-08T08:35:13.878Z,25.92
2022-10-08T08:39:18.871Z,20.30
2022-10-08T08:43:22.696Z,24.75
2022-10-08T08:47:30.987Z,21.52
2022-10-08T08:51:36.312Z,24.42
2022-10-08T08:55:42.690Z,26.70
2022-10-08T08:59:48.297Z,26.58
2022-10-08T09:03:54.067Z,29.33
2022-10-08T09:08:05.465Z,22.23
2022-10-08T09:12:20.834Z,32.92
2022-10-08T09:16:25.439Z,23.75
2022-10-08T09:20:29.240Z,21.45
2022-10-08T09:24:35.733Z,23.90
2022-10-08T09:28:41.395Z,21.90
2022-10-08T09:32:45.177Z,32.08
2022-10-08T09:36:51.782Z,27.67
2022-10-08T09:41:05.218Z,31.77
2022-10-08T09:45:32.818Z,25.92
2022-10-08T09:49:38.892Z,22.50
2022-10-08T09:53:45.468Z,25.83
2022-10-08T09:57:54.583Z,26.52
2022-10-08T10:02:00.670Z,29.00
2022-10-08T10:06:04.438Z,27.10
2022-10-08T10:10:17.970Z,22.73
2022-10-08T10:14:29.702Z,18.95
2022-10-08T10:18:36.970Z,29.92
2022-10-08T10:22:51.279Z,21.00
2022-10-08T10:26:58.130Z,22.02
2022-10-08T10:31:07.283Z,25.58
2022-10-08T10:35:17.114Z,23.08
2022-10-08T10:39:32.204Z,22.60
2022-10-08T10:43:44.143Z,22.92
2022-10-08T10:47:51.081Z,16.50
2022-10-08T10:52:05.120Z,19.10
2022-10-08T10:56:15.447Z,26.15
2022-10-08T11:00:23.530Z,23.38
2022-10-08T11:04:44.847Z,19.85
2022-10-08T11:08:54.463Z,21.05
2022-10-08T11:13:07.017Z,19.52
2022-10-08T11:17:27.594Z,15.82
2022-10-08T11:21:46.342Z,19.08
2022-10-08T11:26:19.081Z,22.75
2022-10-08T11:30:38.645Z,21.15
2022-10-08T11:34:49.635Z,24.08
2022-10-08T11:39:03.150Z,16.25
2022-10-08T11:43:10.807Z,19.55
2022-10-08T11:47:37.682Z,16.92
2022-10-08T11:51:42.018Z,21.25
2022-10-08T11:55:54.199Z,22.15
2022-10-08T12:00:06.912Z,25.63
2022-10-08T12:04:21.458Z,15.88
2022-10-08T12:08:51.889Z,17.02
2022-10-08T12:13:26.140Z,18.65
2022-10-08T12:17:53.586Z,15.88
2022-10-08T12:21:56.950Z,19.23
2022-10-08T12:26:14.181Z,20.45
2022-10-08T12:30:19.322Z,20.98
2022-10-08T12:34:24.007Z,19.15
2022-10-08T12:38:37.565Z,18.65
2022-10-08T12:42:42.354Z,22.10
2022-10-08T12:46:57.955Z,18.92
2022-10-08T12:51:14.883Z,20.17
2022-10-08T12:55:21.970Z,23.13
2022-10-08T12:59:27.939Z,22.88
2022-10-08T13:03:32.394Z,21.15
2022-10-08T13:07:37.088Z,24.13
2022-10-08T13:11:40.593Z,30.05
2022-10-08T13:15:44.042Z,30.83
2022-10-08T13:19:49.067Z,32.85
2022-10-08T13:23:52.654Z,36.05
2022-10-08T13:28:10.438Z,26.70
2022-10-08T13:32:21.845Z,22.20
2022-10-08T13:58:27.572Z,15.23
2022-10-08T14:02:33.931Z,19.15
2022-10-08T14:06:38.470Z,17.77
2022-10-08T14:10:43.479Z,18.33
2022-10-08T14:14:46.977Z,19.40
2022-10-08T14:18:51.869Z,22.45
2022-10-08T14:22:55.521Z,18.55
2022-10-08T14:26:58.508Z,19.17
2022-10-08T14:31:01.532Z,26.20
2022-10-08T14:35:08.549Z,17.30
2022-10-08T14:39:11.658Z,19.88
2022-10-08T14:43:15.155Z,17.63
2022-10-08T14:47:18.613Z,19.77
2022-10-08T14:51:23.001Z,15.48
2022-10-08T14:55:26.520Z,20.77
2022-10-08T14:59:30.034Z,20.52
2022-10-08T15:03:34.286Z,22.70
2022-10-08T15:07:38.986Z,21.25
2022-10-08T15:11:42.640Z,20.80
2022-10-08T15:15:46.635Z,22.77
2022-10-08T15:19:50.112Z,21.02
2022-10-08T15:23:56.725Z,18.50
2022-10-08T15:28:00.196Z,18.35
2022-10-08T15:32:03.704Z,23.05
2022-10-08T15:36:17.714Z,22.92
2022-10-08T15:40:22.224Z,20.30
2022-10-08T15:44:29.601Z,18.77
2022-10-08T15:48:33.020Z,21.15
2022-10-08T15:52:36.394Z,24.75
2022-10-08T15:56:41.154Z,22.67
2022-10-08T16:00:44.889Z,20.30
2022-10-08T16:04:48.925Z,21.20
2022-10-08T16:08:52.349Z,23.65
2022-10-08T16:12:56.726Z,19.60
2022-10-08T16:17:00.467Z,21.83
2022-10-08T16:21:05.150Z,18.88
2022-10-08T16:25:09.118Z,18.92
2022-10-08T16:29:15.327Z,19.02
2022-10-08T16:33:19.762Z,19.33
2022-10-08T16:37:23.000Z,20.83
2022-10-08T16:41:27.380Z,17.70
2022-10-08T16:45:36.243Z,19.73
2022-10-08T16:49:40.337Z,22.20
2022-10-08T16:53:48.360Z,19.05
2022-10-08T16:57:51.808Z,30.55
2022-10-08T17:06:24.580Z,22.17
2022-10-08T17:10:31.159Z,19.55
2022-10-08T17:14:34.580Z,21.95
2022-10-08T17:18:39.730Z,20.70
2022-10-08T17:22:42.782Z,16.00
2022-10-08T17:26:45.838Z,33.10
2022-10-08T17:30:49.108Z,18.92
2022-10-08T17:34:54.379Z,20.15
2022-10-08T17:38:59.176Z,24.38
2022-10-08T17:43:02.702Z,23.80
2022-10-08T17:47:06.488Z,16.98
2022-10-08T17:51:13.120Z,15.35
2022-10-08T17:55:17.146Z,16.27
2022-10-08T17:59:23.085Z,17.55
2022-10-08T18:03:26.649Z,11.10
2022-10-08T18:07:32.838Z,20.27
2022-10-08T18:11:39.199Z,15.20
2022-10-08T18:15:43.131Z,15.75
2022-10-08T18:19:46.594Z,16.33
2022-10-08T18:23:51.730Z,16.50
2022-10-08T18:27:57.226Z,21.83
2022-10-08T18:32:00.748Z,13.52
2022-10-08T18:36:12.231Z,14.02
2022-10-08T18:40:17.336Z,10.27
2022-10-08T18:44:22.288Z,10.35
2022-10-08T18:48:25.736Z,12.77
2022-10-08T18:52:29.176Z,14.65
2022-10-08T18:56:39.114Z,12.88
2022-10-08T19:00:44.048Z,17.17
2022-10-08T19:04:47.039Z,8.57
2022-10-08T19:08:51.334Z,14.50
2022-10-08T19:12:55.906Z,13.38
2022-10-08T19:17:00.759Z,14.10
2022-10-08T19:21:09.179Z,18.13
2022-10-08T19:25:12.670Z,14.40
2022-10-08T19:29:19.499Z,20.08
2022-10-08T19:33:23.167Z,18.77
2022-10-08T19:37:26.840Z,23.10
2022-10-08T19:41:31.391Z,27.08
2022-10-08T19:45:36.833Z,15.80
2022-10-08T19:49:40.343Z,12.73
2022-10-08T19:53:43.681Z,21.27
2022-10-08T19:57:47.014Z,17.80
2022-10-08T20:01:51.968Z,18.77
2022-10-08T20:05:54.991Z,22.40
2022-10-08T20:09:59.017Z,20.98
2022-10-08T20:14:02.873Z,17.67
2022-10-08T20:18:08.499Z,17.10
2022-10-08T20:22:12.159Z,19.33
2022-10-08T20:26:17.847Z,26.50
2022-10-08T20:30:21.556Z,17.70
2022-10-08T20:34:31.763Z,20.00
2022-10-08T20:38:35.795Z,19.85
2022-10-08T20:42:40.634Z,18.80
2022-10-08T20:46:46.594Z,22.60
2022-10-08T20:50:55.238Z,24.30
2022-10-08T20:55:01.278Z,23.67
2022-10-08T20:59:06.273Z,23.70
2022-10-08T21:03:10.468Z,22.77
2022-10-08T21:07:15.028Z,29.90
2022-10-08T21:11:20.353Z,22.75
2022-10-08T21:15:23.849Z,22.08
2022-10-08T21:19:27.161Z,25.40
2022-10-08T21:23:32.061Z,19.48
2022-10-08T21:27:35.249Z,24.27
2022-10-08T21:31:40.402Z,19.40
2022-10-08T21:35:44.100Z,26.10
2022-10-08T21:39:49.290Z,28.38
2022-10-08T21:43:54.672Z,21.13
2022-10-08T21:47:57.805Z,18.90
2022-10-08T21:52:02.202Z,18.45
2022-10-08T21:56:09.845Z,20.85
2022-10-08T22:00:14.674Z,15.25
2022-10-08T22:04:19.865Z,17.70
2022-10-08T22:08:24.531Z,15.63
2022-10-08T22:12:31.280Z,16.60
2022-10-08T22:16:34.843Z,20.88
2022-10-08T22:20:38.418Z,18.50
2022-10-08T22:24:41.480Z,21.38
2022-10-08T22:28:46.934Z,18.58
2022-10-08T22:32:50.937Z,18.27
2022-10-08T22:36:54.586Z,16.55
2022-10-08T22:41:03.156Z,16.02
2022-10-08T22:45:10.338Z,21.00
2022-10-08T22:49:13.493Z,14.77
2022-10-08T22:53:17.648Z,20.63
2022-10-08T22:57:21.204Z,12.25
2022-10-08T23:01:27.791Z,16.10
2022-10-08T23:05:30.964Z,15.93
2022-10-08T23:09:34.081Z,21.77
2022-10-08T23:13:37.772Z,13.63
2022-10-08T23:17:42.459Z,17.90
2022-10-08T23:21:45.975Z,14.77
2022-10-08T23:26:00.393Z,17.15
2022-10-08T23:30:04.464Z,13.90
2022-10-08T23:34:10.166Z,13.73
2022-10-08T23:38:14.795Z,12.90
2022-10-08T23:42:18.376Z,13.23
2022-10-08T23:46:24.030Z,21.13
2022-10-08T23:50:28.965Z,12.45
2022-10-08T23:54:32.452Z,18.48
2022-10-08T23:58:35.950Z,20.92
